Time;durP1;ratioP1;P1;durP2;ratioP2;P2;SDS_P1;SDS_P2;PMS_P1;PMS_P2;Temp;Humidity;BMP_temperature;BMP_pressure;BME280_temperature;BME280_humidity;BME280_pressure;Samples;Min_cycle;Max_cycle;Signal;HPM_P1;HPM_P2
2023/01/07 00:01:57;;;;;;;5.80;5.50;;;;;;;8.77;100.00;148247.34;5093511;28;20570;-60
2023/01/07 00:04:24;;;;;;;5.97;5.77;;;;;;;8.73;100.00;148238.53;5093661;28;20558;-59
2023/01/07 00:06:51;;;;;;;6.57;6.13;;;;;;;8.82;100.00;148260.00;5093726;28;20552;-59
2023/01/07 00:09:18;;;;;;;6.10;5.90;;;;;;;8.69;100.00;148229.72;5093330;28;20219;-60
2023/01/07 00:11:45;;;;;;;5.90;5.70;;;;;;;8.91;100.00;148282.72;5093347;28;20294;-59
2023/01/07 00:14:14;;;;;;;5.60;5.40;;;;;;;8.90;100.00;148280.19;5093229;28;20222;-60
2023/01/07 00:16:41;;;;;;;6.13;5.83;;;;;;;8.83;100.00;148262.47;5093235;28;20180;-60
2023/01/07 00:19:12;;;;;;;6.90;6.60;;;;;;;9.03;100.00;148314.28;5093520;28;20207;-60
2023/01/07 00:21:39;;;;;;;6.70;6.30;;;;;;;9.10;100.00;148331.94;5093350;28;20631;-61
2023/01/07 00:24:09;;;;;;;7.30;7.00;;;;;;;9.06;100.00;148321.84;5093361;28;20188;-60
2023/01/07 00:26:37;;;;;;;7.10;6.60;;;;;;;9.09;100.00;148328.13;5093279;28;20184;-59
2023/01/07 00:29:05;;;;;;;6.87;6.57;;;;;;;9.05;100.00;148319.28;5093144;28;20184;-60
2023/01/07 00:31:33;;;;;;;6.80;6.60;;;;;;;9.26;100.00;148369.78;5093209;28;20188;-61
2023/01/07 00:34:07;;;;;;;7.07;6.77;;;;;;;9.45;100.00;148419.06;5092837;28;20227;-59
2023/01/07 00:36:39;;;;;;;6.60;6.30;;;;;;;9.12;100.00;148335.75;5092825;28;20205;-60
2023/01/07 00:39:07;;;;;;;6.53;6.33;;;;;;;9.18;100.00;148350.88;5092967;28;20691;-60
2023/01/07 00:41:35;;;;;;;6.07;5.80;;;;;;;9.28;100.00;148374.88;5092756;28;20184;-61
2023/01/07 00:44:02;;;;;;;7.00;6.50;;;;;;;9.10;100.00;148331.94;5093112;28;20550;-60
2023/01/07 00:46:29;;;;;;;6.50;6.30;;;;;;;9.03;100.00;148313.00;5092685;28;20195;-60
2023/01/07 00:48:56;;;;;;;6.97;6.53;;;;;;;9.21;100.00;148357.22;5092887;28;20206;-61
2023/01/07 00:51:26;;;;;;;6.30;6.10;;;;;;;9.28;100.00;148376.13;5092580;28;20226;-60
2023/01/07 00:53:54;;;;;;;6.60;6.40;;;;;;;9.33;100.00;148387.50;5074609;28;20184;-60
2023/01/07 00:56:21;;;;;;;6.57;6.17;;;;;;;9.11;100.00;148334.47;5092410;28;20195;-60
2023/01/07 00:58:48;;;;;;;5.93;5.73;;;;;;;9.20;100.00;148354.66;5092619;28;20257;-60
2023/01/07 01:01:15;;;;;;;6.23;5.93;;;;;;;8.99;100.00;148302.91;5092359;28;20184;-60
2023/01/07 01:03:42;;;;;;;5.63;5.43;;;;;;;8.87;100.00;148273.84;5074421;28;20275;-60
2023/01/07 01:06:13;;;;;;;6.17;5.77;;;;;;;8.93;100.00;148287.75;5092384;28;20275;-60
2023/01/07 01:08:41;;;;;;;5.70;5.30;;;;;;;8.91;100.00;148282.72;5092466;28;20191;-60
2023/01/07 01:11:11;;;;;;;6.00;5.70;;;;;;;8.88;100.00;148275.09;5092427;28;20668;-61
2023/01/07 01:13:38;;;;;;;5.57;5.27;;;;;;;8.95;100.00;148294.09;5092419;28;20650;-60
2023/01/07 01:16:09;;;;;;;6.20;5.70;;;;;;;8.96;100.00;148295.31;5092508;28;20184;-60
2023/01/07 01:18:36;;;;;;;5.77;5.43;;;;;;;9.02;100.00;148310.47;5091924;28;20204;-61
2023/01/07 01:21:04;;;;;;;5.27;5.07;;;;;;;9.03;100.00;148313.00;5091946;28;20274;-60
2023/01/07 01:23:31;;;;;;;5.57;5.33;;;;;;;8.93;100.00;148287.75;5092012;28;20176;-60
2023/01/07 01:26:03;;;;;;;5.30;5.10;;;;;;;8.95;100.00;148294.09;5091834;28;20191;-59
2023/01/07 01:28:32;;;;;;;5.10;4.90;;;;;;;8.96;100.00;148295.31;5092215;28;20638;-60
2023/01/07 01:30:59;;;;;;;6.03;5.63;;;;;;;8.86;100.00;148270.09;5091834;28;20196;-61
2023/01/07 01:33:26;;;;;;;5.40;5.20;;;;;;;8.86;100.00;148270.09;5091767;28;20231;-60
2023/01/07 01:35:53;;;;;;;5.60;5.40;;;;;;;8.80;100.00;148254.91;5092055;28;20528;-60
2023/01/07 01:38:20;;;;;;;5.70;5.50;;;;;;;8.82;100.00;148261.25;5091886;28;20211;-59
2023/01/07 01:40:47;;;;;;;5.43;5.20;;;;;;;8.80;100.00;148256.19;5091969;28;20627;-60
2023/01/07 01:43:31;;;;;;;5.33;5.13;;;;;;;8.70;100.00;148232.19;5091901;28;20211;-60
2023/01/07 01:46:02;;;;;;;5.03;4.83;;;;;;;8.88;100.00;148275.09;5091579;28;20219;-60
2023/01/07 01:48:30;;;;;;;6.07;5.77;;;;;;;8.83;100.00;148262.47;5091849;28;20645;-59
2023/01/07 01:50:57;;;;;;;5.27;4.97;;;;;;;8.94;100.00;148291.53;5091844;28;20180;-59
2023/01/07 01:53:28;;;;;;;5.53;5.23;;;;;;;8.97;100.00;148299.09;5091447;28;20188;-61
2023/01/07 01:55:58;;;;;;;5.50;5.30;;;;;;;8.86;100.00;148270.09;5091444;28;20188;-59
2023/01/07 01:58:31;;;;;;;5.83;5.63;;;;;;;8.71;100.00;148234.72;5091320;28;20188;-60
2023/01/07 02:00:59;;;;;;;5.50;5.10;;;;;;;8.81;100.00;148257.44;5091559;28;20196;-60
2023/01/07 02:03:29;;;;;;;5.53;5.00;;;;;;;8.82;100.00;148261.25;5091332;28;20227;-59
2023/01/07 02:05:56;;;;;;;5.33;5.13;;;;;;;8.54;100.00;148191.81;5091604;28;20188;-59
2023/01/07 02:08:23;;;;;;;5.40;5.20;;;;;;;8.67;100.00;148223.38;5091302;28;20259;-61
2023/01/07 02:11:04;;;;;;;4.87;4.67;;;;;;;8.66;100.00;148222.09;5091305;28;20184;-60
2023/01/07 02:13:43;;;;;;;5.37;5.17;;;;;;;8.63;100.00;148214.53;5091237;28;20184;-59
2023/01/07 02:16:22;;;;;;;5.77;5.47;;;;;;;8.52;100.00;148185.53;5092924;28;20570;-60
2023/01/07 02:19:01;;;;;;;5.60;5.20;;;;;;;8.50;100.00;148181.72;5095310;28;20223;-60
2023/01/07 02:21:40;;;;;;;5.23;4.83;;;;;;;8.25;100.00;148118.59;5095327;28;20306;-60
2023/01/07 02:24:44;;;;;;;5.00;4.70;;;;;;;8.32;100.00;148135.06;5095264;28;20187;-60
2023/01/07 02:27:25;;;;;;;5.27;4.90;;;;;;;8.33;100.00;148138.81;5095302;28;20206;-59
2023/01/07 02:30:24;;;;;;;4.03;3.90;;;;;;;8.28;100.00;148127.41;5095593;28;20187;-59
2023/01/07 02:33:09;;;;;;;4.80;4.50;;;;;;;8.40;100.00;148156.47;5095382;28;20650;-60
2023/01/07 02:35:52;;;;;;;5.07;4.63;;;;;;;8.31;100.00;148132.53;5095427;28;20580;-59
2023/01/07 02:38:27;;;;;;;4.93;4.73;;;;;;;8.33;100.00;148138.81;5095345;28;20184;-60
2023/01/07 02:41:04;;;;;;;4.33;4.13;;;;;;;8.27;100.00;148123.66;5095146;28;20195;-59
2023/01/07 02:43:42;;;;;;;4.63;4.43;;;;;;;8.30;100.00;148131.25;5095117;28;20192;-59
2023/01/07 02:46:16;;;;;;;4.80;4.60;;;;;;;8.30;100.00;148130.00;5094976;28;20195;-59
2023/01/07 02:48:46;;;;;;;4.23;4.00;;;;;;;8.27;100.00;148123.66;5095002;28;20289;-60
2023/01/07 02:51:13;;;;;;;4.30;4.10;;;;;;;8.24;100.00;148117.31;5094954;28;20184;-61
2023/01/07 02:53:44;;;;;;;4.70;4.50;;;;;;;8.38;100.00;148151.44;5094853;28;20184;-60
2023/01/07 02:56:26;;;;;;;4.30;4.10;;;;;;;8.30;100.00;148131.25;5094747;28;20204;-60
2023/01/07 02:59:15;;;;;;;5.00;4.50;;;;;;;8.08;100.00;148075.69;5094967;28;20230;-60
2023/01/07 03:02:08;;;;;;;4.60;4.40;;;;;;;8.26;100.00;148121.13;5094995;28;20192;-60
2023/01/07 03:05:04;;;;;;;4.67;4.47;;;;;;;8.23;100.00;148114.78;5094614;28;20192;-59
2023/01/07 03:07:41;;;;;;;4.90;4.47;;;;;;;8.24;100.00;148116.06;5094557;28;20274;-61
2023/01/07 03:10:15;;;;;;;4.60;4.30;;;;;;;8.35;100.00;148143.88;5094771;28;20179;-60
2023/01/07 03:12:45;;;;;;;4.67;4.37;;;;;;;8.39;100.00;148152.72;5094478;28;20662;-60
2023/01/07 03:15:16;;;;;;;4.60;4.40;;;;;;;8.41;100.00;148159.00;5095040;28;20634;-60
2023/01/07 03:17:49;;;;;;;4.50;4.30;;;;;;;8.33;100.00;148138.81;5094753;28;20535;-60
2023/01/07 03:20:20;;;;;;;4.80;4.50;;;;;;;8.43;100.00;148162.81;5094557;28;20689;-60
2023/01/07 03:22:47;;;;;;;4.63;4.43;;;;;;;8.38;100.00;148150.19;5094187;28;20227;-59
2023/01/07 03:25:16;;;;;;;4.93;4.60;;;;;;;8.23;100.00;145058.50;5094221;28;20191;-60
2023/01/07 03:27:46;;;;;;;8.57;5.00;;;;;;;8.20;100.00;141705.84;5094278;28;20191;-60
2023/01/07 03:30:16;;;;;;;4.90;4.50;;;;;;;8.12;100.00;139086.69;5094457;28;20552;-61
2023/01/07 03:32:49;;;;;;;10.30;4.40;;;;;;;7.74;100.00;120535.91;5094218;28;20711;-59
2023/01/07 03:35:18;;;;;;;4.70;4.50;;;;;;;7.73;100.00;112961.47;5094243;28;20177;-59
2023/01/07 03:37:47;;;;;;;5.93;4.70;;;;;;;7.80;100.00;106403.69;5094344;28;20184;-59
2023/01/07 03:40:14;;;;;;;5.93;5.40;;;;;;;7.86;100.00;105101.66;5093874;28;20211;-61
2023/01/07 03:42:41;;;;;;;16.43;5.37;;;;;;;7.90;100.00;105765.28;5093913;28;20188;-59
2023/01/07 03:45:11;;;;;;;15.20;5.03;;;;;;;7.95;100.00;112016.22;5093818;28;20190;-59
2023/01/07 03:47:41;;;;;;;8.63;5.40;;;;;;;7.59;100.00;112606.72;5093781;28;20184;-59
2023/01/07 03:50:09;;;;;;;4.30;4.10;;;;;;;7.56;100.00;104720.72;5093691;28;20268;-60
2023/01/07 03:52:37;;;;;;;4.70;4.40;;;;;;;7.67;100.00;90336.84;5093961;28;20508;-60
2023/01/07 03:55:04;;;;;;;4.83;4.63;;;;;;;7.56;100.00;91953.25;5094024;28;20188;-59
2023/01/07 03:57:32;;;;;;;4.77;4.47;;;;;;;7.59;100.00;85102.31;5093719;28;20195;-59
2023/01/07 03:59:59;;;;;;;4.30;4.10;;;;;;;7.65;100.00;79244.28;5093690;28;20204;-60
2023/01/07 04:02:25;;;;;;;4.93;4.63;;;;;;;7.68;100.00;77946.09;5093889;28;20191;-60
2023/01/07 04:04:52;;;;;;;4.23;3.83;;;;;;;7.69;100.00;79249.72;5093399;28;20187;-59
2023/01/07 04:07:19;;;;;;;4.67;4.37;;;;;;;7.65;100.00;80221.94;5093751;28;20567;-59
2023/01/07 04:09:49;;;;;;;5.13;4.73;;;;;;;7.47;100.00;77593.25;5093271;28;20183;-60
2023/01/07 04:12:16;;;;;;;4.67;4.47;;;;;;;7.37;100.00;70755.22;5093201;28;20184;-60
2023/01/07 04:14:43;;;;;;;4.57;4.20;;;;;;;7.46;100.00;65250.56;5093214;28;20194;-59
2023/01/07 04:17:09;;;;;;;4.37;4.07;;;;;;;7.47;100.00;65575.88;5093600;28;20188;-59
2023/01/07 04:19:37;;;;;;;6.00;4.60;;;;;;;7.70;100.00;71119.72;5093123;28;20200;-60
2023/01/07 04:22:04;;;;;;;3.87;3.77;;;;;;;7.66;100.00;83482.00;5093039;28;20184;-60
2023/01/07 04:24:31;;;;;;;3.87;3.67;;;;;;;7.63;100.00;94906.81;5092986;28;20241;-60
2023/01/07 04:26:59;;;;;;;7.53;5.10;;;;;;;7.33;100.00;110258.34;5093299;28;20602;-59
2023/01/07 04:29:26;;;;;;;11.67;5.70;;;;;;;7.38;100.00;123756.97;5093267;28;20538;-61
2023/01/07 04:31:53;;;;;;;8.93;5.43;;;;;;;7.27;100.00;139311.81;5093219;28;20188;-60
2023/01/07 04:34:20;;;;;;;10.87;5.43;;;;;;;7.17;100.00;139879.13;5092773;28;20235;-60
2023/01/07 04:36:47;;;;;;;9.07;5.27;;;;;;;7.14;100.00;137108.34;5092807;28;20191;-60
2023/01/07 04:39:14;;;;;;;6.40;4.43;;;;;;;6.84;100.00;135470.50;5092161;28;20195;-60
2023/01/07 04:41:41;;;;;;;5.70;5.37;;;;;;;6.54;100.00;116346.88;5093181;28;20180;-59
2023/01/07 04:44:09;;;;;;;8.83;5.67;;;;;;;6.26;100.00;90120.31;5092850;28;20278;-59
2023/01/07 04:46:36;;;;;;;13.33;5.97;;;;;;;6.10;100.00;80659.69;5092664;28;20188;-60
2023/01/07 04:49:03;;;;;;;6.70;5.07;;;;;;;6.08;100.00;77085.31;5092658;28;20188;-59
2023/01/07 04:51:30;;;;;;;12.43;5.90;;;;;;;6.02;100.00;77077.38;5092508;28;20249;-60
2023/01/07 04:53:57;;;;;;;12.40;5.83;;;;;;;6.00;100.00;75451.72;5092535;28;20189;-59
2023/01/07 04:56:24;;;;;;;11.43;5.53;;;;;;;6.02;100.00;73184.94;5092792;28;20188;-61
2023/01/07 04:58:51;;;;;;;8.03;5.40;;;;;;;5.87;100.00;73490.75;5092627;28;20188;-60
2023/01/07 05:01:19;;;;;;;6.23;5.37;;;;;;;5.93;100.00;71877.28;5092542;28;20237;-59
2023/01/07 05:03:46;;;;;;;9.77;5.97;;;;;;;5.59;100.00;64395.72;5092324;28;20188;-59
2023/01/07 05:06:13;;;;;;;19.80;6.57;;;;;;;5.38;100.00;56307.03;5092301;28;20199;-60
2023/01/07 05:08:40;;;;;;;10.73;6.40;;;;;;;4.85;100.00;47573.53;5092537;28;20184;-61
2023/01/07 05:11:07;;;;;;;16.77;8.43;;;;;;;4.60;100.00;36656.28;5092433;28;20519;-60
2023/01/07 05:13:35;;;;;;;36.30;8.23;;;;;;;4.79;100.00;33469.19;5092173;28;20188;-60
2023/01/07 05:16:02;;;;;;;19.10;7.10;;;;;;;4.69;100.00;31545.44;5092388;28;20638;-61
2023/01/07 05:18:31;;;;;;;21.47;7.53;;;;;;;4.78;100.00;27079.47;5091972;28;20263;-59
2023/01/07 05:20:58;;;;;;;22.37;7.20;;;;;;;4.90;100.00;25808.81;5091907;28;20239;-60
2023/01/07 05:23:25;;;;;;;23.50;7.00;;;;;;;4.79;100.00;27079.97;5092536;28;20184;-59
2023/01/07 05:25:52;;;;;;;15.17;6.53;;;;;;;4.58;100.00;27069.81;5092151;28;20196;-60
2023/01/07 05:28:18;;;;;;;15.93;8.40;;;;;;;4.73;100.00;25800.50;5091837;28;20199;-59
2023/01/07 05:30:48;;;;;;;24.77;9.10;;;;;;;4.50;100.00;22921.34;5092058;28;20300;-59
2023/01/07 05:33:15;;;;;;;21.87;9.60;;;;;;;4.31;100.00;19093.16;5091804;28;20238;-59
2023/01/07 05:35:43;;;;;;;23.47;9.93;;;;;;;4.57;100.00;17193.50;5092156;28;20650;-60
2023/01/07 05:38:10;;;;;;;24.93;10.63;;;;;;;4.67;100.00;17196.69;5092297;28;20589;-61
2023/01/07 05:40:37;;;;;;;40.70;16.20;;;;;;;4.41;100.00;17188.19;5091801;28;20207;-60
2023/01/07 05:43:04;;;;;;;45.87;22.03;;;;;;;4.37;100.00;15279.63;5073954;28;20539;-59
2023/01/07 05:45:30;;;;;;;30.07;17.17;;;;;;;4.59;100.00;14968.19;5091571;28;20272;-60
2023/01/07 05:47:57;;;;;;;35.27;18.87;;;;;;;4.59;100.00;16876.09;5091530;28;20188;-60
2023/01/07 05:50:24;;;;;;;37.10;19.10;;;;;;;4.47;100.00;16554.34;5091083;28;20202;-60
2023/01/07 05:52:53;;;;;;;43.67;20.63;;;;;;;4.41;100.00;14009.63;5091495;28;20184;-60
2023/01/07 05:55:20;;;;;;;41.47;22.80;;;;;;;4.33;100.00;11467.19;5073826;28;20567;-60
2023/01/07 05:57:47;;;;;;;46.20;24.27;;;;;;;4.54;100.00;11154.56;5091676;28;20211;-59
2023/01/07 06:00:14;;;;;;;35.07;20.63;;;;;;;4.84;100.00;10526.31;5091587;28;20235;-60
2023/01/07 06:02:41;;;;;;;43.20;20.37;;;;;;;4.51;100.00;15283.69;5091382;28;20180;-61
2023/01/07 06:05:09;;;;;;;34.13;19.67;;;;;;;4.79;100.00;15928.25;5091459;28;20559;-60
2023/01/07 06:07:36;;;;;;;37.93;20.70;;;;;;;5.02;100.00;15935.41;5091770;28;20665;-61
2023/01/07 06:10:05;;;;;;;48.87;24.93;;;;;;;4.89;100.00;15931.19;5091291;28;20184;-60
2023/01/07 06:12:34;;;;;;;55.60;23.70;;;;;;;5.24;100.00;15623.66;5091468;28;20199;-61
2023/01/07 06:15:00;;;;;;;40.57;21.20;;;;;;;5.79;100.00;16277.59;5091289;28;20280;-60
2023/01/07 06:17:27;;;;;;;40.50;17.23;;;;;;;6.31;100.00;19484.53;5091294;28;20195;-60
2023/01/07 06:19:54;;;;;;;34.93;18.43;;;;;;;6.72;100.00;35830.09;5091075;28;20204;-59
2023/01/07 06:22:21;;;;;;;41.47;19.07;;;;;;;6.91;100.00;66484.34;5091186;28;20226;-60
2023/01/07 06:24:48;;;;;;;28.00;16.30;;;;;;;7.35;100.00;87676.28;5091175;28;20188;-61
2023/01/07 06:27:16;;;;;;;34.37;14.00;;;;;;;7.63;100.00;116489.66;5091309;28;20184;-60
2023/01/07 06:29:43;;;;;;;34.60;13.97;;;;;;;8.15;100.00;128758.56;5091551;28;20184;-61
2023/01/07 06:32:10;;;;;;;25.33;13.17;;;;;;;8.97;100.00;148297.84;5091139;28;20188;-61
2023/01/07 06:34:37;;;;;;;32.07;10.37;;;;;;;9.36;100.00;148396.34;5090990;28;20235;-60
2023/01/07 06:37:03;;;;;;;29.00;10.17;;;;;;;9.92;100.00;148535.28;5091423;28;20201;-60
2023/01/07 06:39:30;;;;;;;48.23;12.57;;;;;;;10.66;100.00;148719.81;5091433;28;20195;-61
2023/01/07 06:41:57;;;;;;;36.00;11.33;;;;;;;11.16;100.00;148845.00;5090945;28;20215;-61
2023/01/07 06:44:25;;;;;;;40.33;12.70;;;;;;;11.35;100.00;148893.06;5091388;28;20196;-61
2023/01/07 06:46:52;;;;;;;48.07;11.63;;;;;;;11.89;100.00;149028.44;5091320;28;20547;-60
2023/01/07 06:49:19;;;;;;;68.23;16.07;;;;;;;12.43;100.00;149162.63;5090977;28;20184;-61
2023/01/07 06:51:46;;;;;;;81.37;18.07;;;;;;;12.85;100.00;149269.00;5091020;28;20288;-61
2023/01/07 06:54:13;;;;;;;71.60;15.60;;;;;;;13.14;100.00;149342.50;5090965;28;20275;-61
2023/01/07 06:56:40;;;;;;;49.70;14.13;;;;;;;13.13;100.00;149339.94;5091204;28;20645;-60
2023/01/07 06:59:06;;;;;;;58.20;13.37;;;;;;;14.00;100.00;149557.84;5090870;28;20199;-60
2023/01/07 07:01:35;;;;;;;37.13;10.50;;;;;;;13.76;100.00;149497.03;5091298;28;20222;-60
2023/01/07 07:04:01;;;;;;;40.83;12.80;;;;;;;14.28;100.00;149627.59;5094805;28;20627;-60
2023/01/07 07:06:28;;;;;;;63.37;13.70;;;;;;;15.07;100.00;149826.72;5094630;28;20200;-60
2023/01/07 07:08:55;;;;;;;49.70;12.47;;;;;;;15.53;100.00;149942.22;5094904;28;20631;-60
2023/01/07 07:11:22;;;;;;;65.33;15.47;;;;;;;16.10;100.00;150083.09;5094856;28;20592;-61
2023/01/07 07:13:49;;;;;;;50.23;13.60;;;;;;;16.40;97.07;150160.56;5094722;28;20194;-61
2023/01/07 07:16:16;;;;;;;43.43;12.87;;;;;;;16.61;95.67;150211.41;5094771;28;20660;-60
2023/01/07 07:18:44;;;;;;;43.50;12.50;;;;;;;17.45;90.02;150423.53;5094393;28;20192;-61
2023/01/07 07:21:11;;;;;;;43.40;12.27;;;;;;;17.57;84.70;150454.03;5094159;28;20567;-63
2023/01/07 07:23:38;;;;;;;35.17;10.67;;;;;;;17.57;86.49;150454.03;5094445;28;20188;-61
2023/01/07 07:26:05;;;;;;;25.33;10.23;;;;;;;17.33;85.31;150393.06;5094578;28;20191;-61
2023/01/07 07:28:32;;;;;;;75.27;15.90;;;;;;;18.50;83.45;150688.00;5094710;28;20188;-61
2023/01/07 07:30:59;;;;;;;32.13;10.50;;;;;;;18.97;77.28;150805.06;5094569;28;20527;-61
2023/01/07 07:33:26;;;;;;;23.83;10.00;;;;;;;19.60;71.86;150964.19;5094300;28;20681;-62
2023/01/07 07:35:54;;;;;;;61.73;11.47;;;;;;;20.11;69.00;151091.50;5094190;28;20184;-61
2023/01/07 07:38:22;;;;;;;37.07;9.53;;;;;;;19.79;68.82;151012.53;5093987;28;20188;-62
2023/01/07 07:40:48;;;;;;;45.80;12.10;;;;;;;19.66;69.81;150978.16;5094276;28;20589;-61
2023/01/07 07:43:16;;;;;;;52.10;12.83;;;;;;;20.22;66.75;151119.50;5094257;28;20555;-61
2023/01/07 07:45:43;;;;;;;31.10;11.67;;;;;;;19.28;69.81;150883.97;5093949;28;20187;-61
2023/01/07 07:48:12;;;;;;;36.57;13.67;;;;;;;19.01;74.68;150815.28;5094128;28;20661;-60
2023/01/07 07:50:39;;;;;;;17.27;11.97;;;;;;;19.54;68.78;150948.91;5093828;28;20180;-60
2023/01/07 07:53:09;;;;;;;18.53;11.90;;;;;;;19.81;67.80;151016.38;5094175;28;20631;-60
2023/01/07 07:55:36;;;;;;;34.50;12.47;;;;;;;20.21;64.82;151116.94;5093779;28;20212;-60
2023/01/07 07:58:03;;;;;;;23.20;11.50;;;;;;;20.74;61.59;151252.00;5093651;28;20196;-62
2023/01/07 08:00:30;;;;;;;26.85;11.05;;;;;;;21.26;59.84;151383.22;5093574;28;20218;-62
2023/01/07 08:02:58;;;;;;;10.18;9.40;;;;;;;21.33;58.76;151401.09;5093679;28;20611;-61
2023/01/07 08:05:25;;;;;;;13.60;9.40;;;;;;;21.54;58.75;151453.34;5093504;28;20192;-62
2023/01/07 08:07:52;;;;;;;20.30;8.82;;;;;;;21.51;57.62;151444.44;5093876;28;20187;-61
2023/01/07 08:10:20;;;;;;;13.98;8.55;;;;;;;22.59;55.32;151717.28;5093455;28;20188;-61
2023/01/07 08:12:48;;;;;;;12.85;6.88;;;;;;;21.99;56.17;151566.81;5093044;28;20192;-62
2023/01/07 08:15:15;;;;;;;9.13;5.30;;;;;;;22.01;57.68;151571.94;5093195;28;20472;-61
2023/01/07 08:17:42;;;;;;;7.57;4.43;;;;;;;21.24;61.60;151376.88;5093747;28;20294;-60
2023/01/07 08:20:10;;;;;;;5.90;4.53;;;;;;;21.67;60.61;151486.47;5093446;28;20188;-62
2023/01/07 08:22:37;;;;;;;4.00;3.70;;;;;;;22.36;58.18;151659.94;5093758;28;20203;-62
2023/01/07 08:25:04;;;;;;;4.93;3.38;;;;;;;23.31;54.49;151898.47;5093476;28;20559;-61
2023/01/07 08:27:32;;;;;;;3.85;3.58;;;;;;;23.12;53.99;151851.28;5093121;28;20192;-61
2023/01/07 08:29:59;;;;;;;3.10;2.80;;;;;;;23.35;53.52;151909.97;5093129;28;20191;-62
2023/01/07 08:32:26;;;;;;;4.32;2.72;;;;;;;22.63;55.32;151727.50;5075110;28;20184;-62
2023/01/07 08:34:53;;;;;;;4.22;2.53;;;;;;;22.98;55.73;151816.84;5092795;28;20685;-62
2023/01/07 08:37:20;;;;;;;3.85;3.10;;;;;;;22.44;57.70;151679.03;5075323;28;20532;-61
2023/01/07 08:39:47;;;;;;;3.67;2.63;;;;;;;21.49;61.18;151439.31;5093219;28;20180;-60
2023/01/07 08:42:13;;;;;;;4.63;2.90;;;;;;;21.86;60.20;151533.63;5092879;28;20212;-62
2023/01/07 08:44:42;;;;;;;2.58;2.47;;;;;;;22.81;57.16;151772.19;5093072;28;20192;-62
2023/01/07 08:47:09;;;;;;;2.60;2.35;;;;;;;22.54;58.19;151704.53;5092989;28;20207;-62
2023/01/07 08:49:36;;;;;;;3.22;2.92;;;;;;;22.39;58.36;151666.28;5092699;28;20180;-62
2023/01/07 08:52:03;;;;;;;2.13;2.03;;;;;;;22.62;57.32;151724.94;5092921;28;20651;-61
2023/01/07 08:54:29;;;;;;;1.95;1.85;;;;;;;22.26;57.39;151634.41;5092657;28;20184;-62
2023/01/07 08:56:56;;;;;;;2.40;2.17;;;;;;;22.98;55.37;151816.84;5092483;28;20547;-61
2023/01/07 08:59:23;;;;;;;3.90;2.53;;;;;;;23.49;53.47;151944.47;5092590;28;20188;-62
2023/01/07 09:01:51;;;;;;;2.45;2.35;;;;;;;23.87;50.11;152041.47;5092631;28;20707;-61
2023/01/07 09:04:18;;;;;;;2.67;2.58;;;;;;;24.28;49.88;152144.91;5092663;28;20187;-60
2023/01/07 09:06:45;;;;;;;2.53;2.42;;;;;;;24.52;49.04;152206.25;5092695;28;20649;-62
2023/01/07 09:09:15;;;;;;;3.20;2.88;;;;;;;24.50;48.81;152201.13;5092312;28;20195;-62
2023/01/07 09:11:42;;;;;;;4.35;3.30;;;;;;;24.50;47.60;152199.84;5092521;28;20715;-62
2023/01/07 09:14:09;;;;;;;3.95;3.58;;;;;;;25.43;45.43;152434.91;5092612;28;20192;-60
2023/01/07 09:16:35;;;;;;;2.88;2.78;;;;;;;25.34;45.02;152413.19;5092511;28;20552;-61
2023/01/07 09:19:04;;;;;;;3.75;3.53;;;;;;;24.73;45.84;152258.59;5074072;28;20188;-61
2023/01/07 09:21:31;;;;;;;4.50;3.88;;;;;;;24.89;46.64;152299.50;5092126;28;20219;-61
2023/01/07 09:23:57;;;;;;;3.90;3.60;;;;;;;24.98;46.38;152322.50;5092051;28;20184;-61
2023/01/07 09:26:24;;;;;;;3.53;3.42;;;;;;;24.42;46.74;152179.41;5092026;28;20180;-61
2023/01/07 09:28:51;;;;;;;4.18;3.88;;;;;;;25.29;46.16;152399.19;5092007;28;20195;-61
2023/01/07 09:31:18;;;;;;;4.35;4.15;;;;;;;25.91;45.26;152556.38;5091876;28;20184;-61
2023/01/07 09:33:45;;;;;;;6.03;3.78;;;;;;;25.53;44.31;152460.53;5091786;28;20318;-60
2023/01/07 09:36:13;;;;;;;3.10;3.00;;;;;;;26.32;42.61;152659.97;5091967;28;20184;-61
2023/01/07 09:38:40;;;;;;;3.38;3.17;;;;;;;25.63;43.32;152486.06;5092625;28;20184;-60
2023/01/07 09:41:21;;;;;;;3.08;2.83;;;;;;;25.11;43.11;152353.16;5091797;28;20593;-60
2023/01/07 09:43:52;;;;;;;3.40;3.20;;;;;;;25.35;41.94;152414.47;5092176;28;20180;-61
2023/01/07 09:46:19;;;;;;;4.22;3.38;;;;;;;24.86;42.94;152291.88;5091958;28;20211;-60
2023/01/07 09:48:51;;;;;;;3.45;3.15;;;;;;;24.71;42.60;152252.19;5092165;28;20562;-61
2023/01/07 09:51:24;;;;;;;3.42;3.22;;;;;;;24.02;43.78;152078.47;5091855;28;20639;-61
2023/01/07 09:53:54;;;;;;;2.95;2.85;;;;;;;23.36;44.32;151911.25;5091706;28;20203;-61
2023/01/07 09:56:27;;;;;;;3.13;2.92;;;;;;;22.62;45.09;151724.94;5073447;28;20203;-61
2023/01/07 09:58:54;;;;;;;4.57;4.18;;;;;;;21.82;47.49;151523.44;5091786;28;20184;-60
2023/01/07 10:01:34;;;;;;;4.50;4.30;;;;;;;21.23;51.11;151375.59;5091253;28;20214;-61
2023/01/07 10:04:19;;;;;;;5.10;4.80;;;;;;;21.24;52.23;151378.16;5091761;28;20184;-59
2023/01/07 10:06:57;;;;;;;6.82;6.18;;;;;;;21.30;51.70;151392.19;5091419;28;20196;-60
2023/01/07 10:09:36;;;;;;;6.93;6.30;;;;;;;21.72;52.03;151497.97;5091303;28;20180;-60
2023/01/07 10:12:14;;;;;;;6.20;5.78;;;;;;;22.24;49.66;151630.56;5091412;28;20175;-60
2023/01/07 10:15:03;;;;;;;6.53;6.10;;;;;;;22.01;49.95;151570.66;5091319;28;20184;-60
2023/01/07 10:17:45;;;;;;;5.80;5.40;;;;;;;22.65;47.31;151733.88;5074355;28;20200;-60
2023/01/07 10:20:21;;;;;;;6.13;5.70;;;;;;;23.20;45.69;151873.00;5091322;28;20184;-60
2023/01/07 10:22:56;;;;;;;5.28;4.90;;;;;;;22.59;47.49;151717.28;5091103;28;20230;-61
2023/01/07 10:25:27;;;;;;;5.88;5.57;;;;;;;22.41;47.49;151671.34;5091564;28;20183;-61
2023/01/07 10:28:00;;;;;;;5.22;4.85;;;;;;;21.31;49.85;151395.97;5091283;28;20185;-60
2023/01/07 10:30:31;;;;;;;6.55;5.53;;;;;;;20.55;50.74;151202.28;5091309;28;20500;-60
2023/01/07 10:33:10;;;;;;;6.50;5.60;;;;;;;19.32;55.97;150892.84;5091082;28;20220;-60
2023/01/07 10:35:40;;;;;;;5.40;5.05;;;;;;;19.94;55.73;151049.47;5091772;28;20619;-60
2023/01/07 10:38:15;;;;;;;4.57;4.30;;;;;;;20.12;56.07;151095.28;5094187;28;20199;-60
2023/01/07 10:40:48;;;;;;;5.18;4.88;;;;;;;19.58;57.24;150959.09;5095184;28;20239;-60
2023/01/07 10:43:28;;;;;;;6.05;5.53;;;;;;;20.40;54.17;151165.38;5094970;28;20683;-60
2023/01/07 10:46:11;;;;;;;5.97;5.40;;;;;;;20.02;55.89;151071.13;5094989;28;20195;-60
2023/01/07 10:49:04;;;;;;;5.43;5.13;;;;;;;18.96;58.52;150802.56;5095354;28;20681;-60
2023/01/07 10:51:50;;;;;;;6.68;6.13;;;;;;;18.11;63.79;150590.13;5095206;28;20180;-60
2023/01/07 10:54:35;;;;;;;6.03;5.57;;;;;;;18.82;62.65;150766.91;5095120;28;20618;-58
2023/01/07 10:57:09;;;;;;;5.45;5.15;;;;;;;19.67;59.60;150980.72;5095101;28;20570;-61
2023/01/07 10:59:37;;;;;;;5.55;5.07;;;;;;;20.88;54.14;151286.34;5095114;28;20540;-60
2023/01/07 11:02:05;;;;;;;5.10;4.80;;;;;;;21.29;52.55;151390.91;5094698;28;20205;-59
2023/01/07 11:04:31;;;;;;;4.82;4.63;;;;;;;21.07;52.00;151334.78;5094674;28;20283;-60
2023/01/07 11:07:03;;;;;;;4.90;4.70;;;;;;;20.54;52.88;151199.78;5094923;28;20552;-60
2023/01/07 11:09:33;;;;;;;5.68;5.43;;;;;;;21.04;53.08;151327.16;5094721;28;20219;-61
2023/01/07 11:12:05;;;;;;;5.75;5.45;;;;;;;21.75;50.43;151505.59;5094645;28;20290;-59
2023/01/07 11:14:36;;;;;;;5.75;5.53;;;;;;;21.74;50.29;151503.03;5094502;28;20274;-59
2023/01/07 11:17:08;;;;;;;5.40;4.82;;;;;;;21.68;49.62;151487.75;5094482;28;20192;-61
2023/01/07 11:19:43;;;;;;;5.07;4.57;;;;;;;21.51;50.92;151444.44;5094401;28;20188;-59
2023/01/07 11:22:30;;;;;;;5.35;4.97;;;;;;;21.15;51.46;151355.22;5094519;28;20673;-60
2023/01/07 11:24:59;;;;;;;6.40;4.78;;;;;;;20.34;53.12;151150.09;5094609;28;20704;-60
2023/01/07 11:27:29;;;;;;;5.18;4.88;;;;;;;20.73;53.40;151249.44;5094537;28;20562;-61
2023/01/07 11:29:59;;;;;;;5.03;4.82;;;;;;;21.05;52.27;151329.66;5094639;28;20524;-59
2023/01/07 11:32:28;;;;;;;5.30;4.85;;;;;;;21.31;51.63;151395.97;5094120;28;20643;-59
2023/01/07 11:34:59;;;;;;;7.05;5.20;;;;;;;20.46;52.86;151181.91;5093999;28;20227;-61